Time;durP1;ratioP1;P1;durP2;ratioP2;P2;SDS_P1;SDS_P2;PMS_P1;PMS_P2;Temp;Humidity;BMP_temperature;BMP_pressure;BME280_temperature;BME280_humidity;BME280_pressure;Samples;Min_cycle;Max_cycle;Signal;HPM_P1;HPM_P2
2021/12/01 00:01:35;;;;;;;;;;;;;;;14.86;100.00;99938.63;5054320;28;20387;-52
2021/12/01 00:04:01;;;;;;;;;;;;;;;15.02;100.00;99905.47;5054560;28;20365;-52
2021/12/01 00:06:26;;;;;;;;;;;;;;;14.99;100.00;99914.06;5054577;28;20291;-50
2021/12/01 00:08:52;;;;;;;;;;;;;;;14.79;100.00;99900.28;5053763;28;19942;-48
2021/12/01 00:11:17;;;;;;;;;;;;;;;15.03;100.00;99890.13;5055958;28;20380;-51
2021/12/01 00:13:42;;;;;;;;;;;;;;;14.73;100.00;99891.31;5070216;28;20018;-54
2021/12/01 00:16:08;;;;;;;;;;;;;;;14.93;100.00;99890.78;5054193;28;19923;-51
2021/12/01 00:18:33;;;;;;;;;;;;;;;15.10;100.00;99879.19;5053650;28;19924;-53
2021/12/01 00:20:59;;;;;;;;;;;;;;;15.01;100.00;99860.78;5086311;28;20067;-48
2021/12/01 00:23:25;;;;;;;;;;;;;;;15.17;100.00;99837.53;5052565;28;19917;-51
2021/12/01 00:25:50;;;;;;;;;;;;;;;15.35;100.00;99843.69;5086060;28;19916;-51
2021/12/01 00:28:16;;;;;;;;;;;;;;;15.24;100.00;99833.84;5052417;28;19923;-54
2021/12/01 00:30:41;;;;;;;;;;;;;;;15.00;100.00;99826.00;5054403;28;20246;-51
2021/12/01 00:33:11;;;;;;;;;;;;;;;15.16;100.00;99819.75;5054068;28;20276;-51
2021/12/01 00:35:36;;;;;;;;;;;;;;;15.34;100.00;99805.13;5053359;28;20353;-54
2021/12/01 00:38:02;;;;;;;;;;;;;;;15.22;100.00;99801.75;5053340;28;19935;-52
2021/12/01 00:40:27;;;;;;;;;;;;;;;14.95;100.00;99791.75;5053627;28;19932;-48
2021/12/01 00:42:53;;;;;;;;;;;;;;;14.86;100.00;99790.56;5053931;28;19931;-53
2021/12/01 00:45:21;;;;;;;;;;;;;;;14.87;100.00;99797.56;5053854;28;19913;-48
2021/12/01 00:47:52;;;;;;;;;;;;;;;14.94;100.00;99817.03;5053751;28;20253;-51
2021/12/01 00:50:20;;;;;;;;;;;;;;;14.85;100.00;99775.47;5053420;28;20015;-49
2021/12/01 00:52:46;;;;;;;;;;;;;;;14.95;100.00;99772.91;5053225;28;19962;-51
2021/12/01 00:55:11;;;;;;;;;;;;;;;15.01;100.00;99769.22;5053173;28;19913;-50
2021/12/01 00:57:36;;;;;;;;;;;;;;;15.18;100.00;99773.72;5085365;28;19926;-52
2021/12/01 01:00:04;;;;;;;;;;;;;;;15.10;100.00;99753.41;5053651;28;19925;-56
2021/12/01 01:02:29;;;;;;;;;;;;;;;15.09;100.00;99764.47;5053202;28;20357;-51
2021/12/01 01:04:55;;;;;;;;;;;;;;;15.19;100.00;99749.22;5052990;28;19927;-50
2021/12/01 01:07:20;;;;;;;;;;;;;;;15.15;100.00;99739.22;5053010;28;19917;-50
2021/12/01 01:09:46;;;;;;;;;;;;;;;15.18;100.00;99738.69;5053018;28;20007;-52
2021/12/01 01:17:39;;;;;;;;;;;;;;;15.00;100.00;99715.63;5085601;28;19967;-49
2021/12/01 01:20:08;;;;;;;;;;;;;;;15.25;100.00;99709.72;5053071;28;19917;-50
2021/12/01 01:22:34;;;;;;;;;;;;;;;15.18;100.00;99709.91;5053195;28;19920;-53
2021/12/01 01:24:59;;;;;;;;;;;;;;;15.09;100.00;99691.75;5053167;28;19924;-51
2021/12/01 01:27:24;;;;;;;;;;;;;;;15.00;100.00;99700.31;5051953;28;20003;-53
2021/12/01 01:29:50;;;;;;;;;;;;;;;14.97;100.00;99684.63;5053710;28;19917;-49
2021/12/01 01:32:15;;;;;;;;;;;;;;;14.97;100.00;99670.38;5084908;28;19942;-47
2021/12/01 01:34:40;;;;;;;;;;;;;;;15.14;100.00;99662.19;5051915;28;19917;-52
2021/12/01 01:37:06;;;;;;;;;;;;;;;15.08;100.00;99661.31;5052626;28;19924;-55
2021/12/01 01:39:31;;;;;;;;;;;;;;;14.62;100.00;99675.88;5052634;28;19920;-52
2021/12/01 01:41:57;;;;;;;;;;;;;;;15.04;100.00;99669.09;5052700;28;19917;-50
2021/12/01 01:44:30;;;;;;;;;;;;;;;14.63;100.00;99674.81;5052619;28;19928;-50
2021/12/01 01:46:56;;;;;;;;;;;;;;;14.85;100.00;99665.13;5052811;28;19959;-48
2021/12/01 01:49:34;;;;;;;;;;;;;;;14.81;100.00;99650.56;5052833;28;19920;-57
2021/12/01 01:52:00;;;;;;;;;;;;;;;14.81;100.00;99637.09;5054040;28;19920;-56
2021/12/01 01:54:25;;;;;;;;;;;;;;;14.63;100.00;99639.81;5057059;28;19919;-57
2021/12/01 01:56:50;;;;;;;;;;;;;;;15.02;100.00;99633.56;5058625;28;20301;-58
2021/12/01 01:59:16;;;;;;;;;;;;;;;14.74;100.00;99631.91;5058234;28;20253;-55
2021/12/01 02:04:08;;;;;;;;;;;;;;;14.76;100.00;99622.53;5057262;28;19916;-56
2021/12/01 02:06:33;;;;;;;;;;;;;;;14.63;100.00;99622.88;5057163;28;19964;-58
2021/12/01 02:08:58;;;;;;;;;;;;;;;14.57;100.00;99613.13;5057426;28;19952;-58
2021/12/01 02:11:26;;;;;;;;;;;;;;;14.52;100.00;99595.06;5056681;28;20438;-56
2021/12/01 02:13:51;;;;;;;;;;;;;;;14.44;100.00;99609.75;5056137;28;19920;-56
2021/12/01 02:16:18;;;;;;;;;;;;;;;14.43;100.00;99602.75;5057265;28;19939;-56
2021/12/01 02:18:43;;;;;;;;;;;;;;;14.70;100.00;99585.81;5072406;28;20434;-58
2021/12/01 02:21:13;;;;;;;;;;;;;;;14.82;100.00;99576.81;5056715;28;19952;-57
2021/12/01 02:23:40;;;;;;;;;;;;;;;14.53;100.00;99587.78;5055968;28;19917;-59
2021/12/01 02:26:06;;;;;;;;;;;;;;;14.56;100.00;99571.97;5055500;28;19916;-59
2021/12/01 02:28:32;;;;;;;;;;;;;;;14.61;100.00;99555.06;5089554;28;19923;-58
2021/12/01 02:30:57;;;;;;;;;;;;;;;14.58;100.00;99579.78;5054932;28;19916;-57
2021/12/01 02:33:23;;;;;;;;;;;;;;;14.37;100.00;99541.09;5056650;28;19917;-58
2021/12/01 02:35:48;;;;;;;;;;;;;;;14.47;100.00;99546.59;5056947;28;19960;-58
2021/12/01 02:38:14;;;;;;;;;;;;;;;14.35;100.00;99538.66;5056743;28;19928;-57
2021/12/01 02:40:39;;;;;;;;;;;;;;;14.23;100.00;99532.59;5055020;28;19923;-59
2021/12/01 02:43:04;;;;;;;;;;;;;;;14.07;100.00;99550.44;5056662;28;19917;-58
2021/12/01 02:45:30;;;;;;;;;;;;;;;14.13;100.00;99512.59;5055289;28;19982;-57
2021/12/01 02:47:55;;;;;;;;;;;;;;;14.35;100.00;99519.84;5056425;28;19928;-58
2021/12/01 02:50:21;;;;;;;;;;;;;;;14.30;100.00;99504.44;5071809;28;20353;-57
2021/12/01 02:52:46;;;;;;;;;;;;;;;14.10;100.00;99506.91;5055105;28;19921;-56
2021/12/01 02:55:15;;;;;;;;;;;;;;;14.36;100.00;99497.25;5055619;28;19936;-59
2021/12/01 02:57:44;;;;;;;;;;;;;;;14.22;100.00;99522.91;5056992;28;20019;-59
2021/12/01 03:00:10;;;;;;;;;;;;;;;14.17;100.00;99486.84;5055389;28;19924;-56
2021/12/01 03:02:35;;;;;;;;;;;;;;;14.18;100.00;99503.75;5088499;28;19917;-57
2021/12/01 03:05:01;;;;;;;;;;;;;;;13.84;100.00;99474.38;5056180;28;19921;-58
2021/12/01 03:07:27;;;;;;;;;;;;;;;13.85;100.00;99471.44;5055429;28;19912;-58
2021/12/01 03:09:52;;;;;;;;;;;;;;;13.89;100.00;99471.72;5056166;28;19921;-57
2021/12/01 03:12:17;;;;;;;;;;;;;;;14.11;100.00;99450.22;5056405;28;19923;-58
2021/12/01 03:14:44;;;;;;;;;;;;;;;13.90;100.00;99441.94;5053389;28;20015;-56
2021/12/01 03:17:09;;;;;;;;;;;;;;;14.01;100.00;99450.91;5055582;28;20068;-58
2021/12/01 03:19:35;;;;;;;;;;;;;;;13.91;100.00;99446.25;5087814;28;20025;-56
2021/12/01 03:22:01;;;;;;;;;;;;;;;13.82;100.00;99438.88;5055472;28;19921;-57
2021/12/01 03:24:31;;;;;;;;;;;;;;;14.48;100.00;99425.28;5055489;28;20435;-58
2021/12/01 03:26:56;;;;;;;;;;;;;;;14.10;100.00;99420.88;5055211;28;19916;-57
2021/12/01 03:29:22;;;;;;;;;;;;;;;13.87;100.00;99401.31;5054404;28;20380;-57
2021/12/01 03:31:47;;;;;;;;;;;;;;;14.01;100.00;99407.91;5055566;28;20012;-58
2021/12/01 03:34:12;;;;;;;;;;;;;;;13.78;100.00;99392.88;5054142;28;20368;-57
2021/12/01 03:36:38;;;;;;;;;;;;;;;13.85;100.00;99425.75;5088076;28;20408;-58
2021/12/01 03:39:03;;;;;;;;;;;;;;;13.93;100.00;99394.13;5054226;28;19921;-59
2021/12/01 03:41:29;;;;;;;;;;;;;;;14.06;100.00;99382.94;5055645;28;20011;-58
2021/12/01 03:43:54;;;;;;;;;;;;;;;13.74;100.00;99375.66;5087488;28;19917;-56
2021/12/01 03:46:21;;;;;;;;;;;;;;;13.90;100.00;99365.88;5053879;28;19974;-58
2021/12/01 03:48:47;;;;;;;;;;;;;;;14.08;100.00;99353.97;5053919;28;20098;-58
2021/12/01 03:51:12;;;;;;;;;;;;;;;13.62;100.00;99379.31;5054985;28;19960;-59
2021/12/01 03:53:37;;;;;;;;;;;;;;;13.65;100.00;99355.69;5055175;28;19952;-58
2021/12/01 03:56:03;;;;;;;;;;;;;;;13.56;100.00;99358.00;5087073;28;19925;-57
2021/12/01 03:58:28;;;;;;;;;;;;;;;13.65;100.00;99331.50;5054783;28;19967;-56
2021/12/01 04:00:54;;;;;;;;;;;;;;;13.84;100.00;99327.41;5054855;28;20381;-58
2021/12/01 04:03:19;;;;;;;;;;;;;;;13.64;100.00;99305.72;5054817;28;20407;-58
2021/12/01 04:05:44;;;;;;;;;;;;;;;13.43;100.00;99326.97;5088489;28;19920;-58
2021/12/01 04:08:10;;;;;;;;;;;;;;;13.56;100.00;99302.41;5056310;28;19963;-56
2021/12/01 04:10:35;;;;;;;;;;;;;;;14.01;100.00;99302.28;5087627;28;20383;-58
2021/12/01 04:13:01;;;;;;;;;;;;;;;13.78;100.00;99355.28;5054393;28;19928;-58
2021/12/01 04:15:26;;;;;;;;;;;;;;;13.80;100.00;99304.78;5054797;28;19912;-57
2021/12/01 04:17:52;;;;;;;;;;;;;;;14.04;100.00;99273.00;5054773;28;19991;-59
2021/12/01 04:20:19;;;;;;;;;;;;;;;14.12;100.00;99268.22;5054617;28;19928;-58
2021/12/01 04:22:46;;;;;;;;;;;;;;;13.51;100.00;99274.69;5053425;28;19917;-58
2021/12/01 04:25:12;;;;;;;;;;;;;;;13.50;100.00;99244.34;5053351;28;20015;-58
2021/12/01 04:27:38;;;;;;;;;;;;;;;13.38;100.00;99231.03;5053836;28;20011;-58
2021/12/01 04:30:04;;;;;;;;;;;;;;;13.41;100.00;99270.00;5053740;28;19924;-57
2021/12/01 04:32:30;;;;;;;;;;;;;;;12.90;100.00;99228.91;5053372;28;19996;-58
2021/12/01 04:34:57;;;;;;;;;;;;;;;12.99;100.00;99221.22;5054438;28;19967;-58
2021/12/01 04:37:23;;;;;;;;;;;;;;;13.18;100.00;99234.31;5054339;28;19920;-58
2021/12/01 04:39:48;;;;;;;;;;;;;;;13.03;100.00;99230.41;5054072;28;19921;-58
2021/12/01 04:42:13;;;;;;;;;;;;;;;13.16;100.00;99194.31;5053964;28;20277;-59
2021/12/01 04:44:39;;;;;;;;;;;;;;;13.15;100.00;99210.69;5053302;28;19995;-56
2021/12/01 04:47:09;;;;;;;;;;;;;;;13.11;100.00;99185.38;5054040;28;19935;-57
2021/12/01 04:49:37;;;;;;;;;;;;;;;12.99;100.00;99218.56;5053861;28;19921;-57
2021/12/01 04:52:03;;;;;;;;;;;;;;;12.95;100.00;99190.59;5054064;28;19924;-57
2021/12/01 04:54:29;;;;;;;;;;;;;;;13.13;100.00;99210.91;5053811;28;19920;-58
2021/12/01 04:56:54;;;;;;;;;;;;;;;12.84;100.00;99186.16;5053625;28;19916;-57
2021/12/01 04:59:20;;;;;;;;;;;;;;;13.23;100.00;99178.00;5053827;28;19912;-57
2021/12/01 05:01:47;;;;;;;;;;;;;;;12.81;100.00;99170.59;5053743;28;19939;-57
2021/12/01 05:04:12;;;;;;;;;;;;;;;12.87;100.00;99194.53;5053535;28;19923;-59
2021/12/01 05:06:39;;;;;;;;;;;;;;;12.82;100.00;99178.38;5086185;28;19917;-58
2021/12/01 05:09:04;;;;;;;;;;;;;;;12.74;100.00;99173.44;5052531;28;19978;-57
2021/12/01 05:11:30;;;;;;;;;;;;;;;12.70;100.00;99205.34;5052488;28;19920;-58
2021/12/01 05:13:55;;;;;;;;;;;;;;;13.01;100.00;99153.88;5053939;28;20372;-58
2021/12/01 05:16:21;;;;;;;;;;;;;;;12.89;100.00;99145.97;5069377;28;19921;-58
2021/12/01 05:18:46;;;;;;;;;;;;;;;13.06;100.00;99132.50;5053541;28;20372;-58
2021/12/01 05:21:12;;;;;;;;;;;;;;;12.56;100.00;99171.91;5052565;28;19924;-58
2021/12/01 05:23:37;;;;;;;;;;;;;;;12.77;100.00;99125.47;5053792;28;19924;-58
2021/12/01 05:26:03;;;;;;;;;;;;;;;12.89;100.00;99124.50;5086139;28;19924;-58
2021/12/01 05:28:28;;;;;;;;;;;;;;;13.05;100.00;99145.06;5052268;28;19921;-57
2021/12/01 05:30:55;;;;;;;;;;;;;;;12.91;100.00;99142.00;5052873;28;20361;-58
2021/12/01 05:33:21;;;;;;;;;;;;;;;12.97;100.00;99094.56;5053543;28;20443;-56
2021/12/01 05:35:46;;;;;;;;;;;;;;;12.92;100.00;99124.03;5069674;28;19956;-59
2021/12/01 05:38:12;;;;;;;;;;;;;;;12.86;100.00;99125.84;5054021;28;19963;-57
2021/12/01 05:40:38;;;;;;;;;;;;;;;12.78;100.00;99118.22;5058411;28;19913;-58
2021/12/01 05:43:03;;;;;;;;;;;;;;;12.98;100.00;99120.34;5073184;28;20369;-58
2021/12/01 05:45:29;;;;;;;;;;;;;;;12.90;100.00;99089.41;5057601;28;19916;-58
2021/12/01 05:47:54;;;;;;;;;;;;;;;12.67;100.00;99089.69;5057405;28;19922;-57
2021/12/01 05:50:20;;;;;;;;;;;;;;;12.59;100.00;99099.00;5057942;28;19920;-58
2021/12/01 05:52:46;;;;;;;;;;;;;;;13.15;100.00;99074.59;5073015;28;20291;-59
2021/12/01 05:55:11;;;;;;;;;;;;;;;12.91;100.00;99060.69;5091112;28;19947;-59
2021/12/01 05:57:36;;;;;;;;;;;;;;;12.89;100.00;99065.50;5089675;28;20061;-59
2021/12/01 06:00:07;;;;;;;;;;;;;;;12.89;100.00;99108.41;5089772;28;19920;-58
2021/12/01 06:02:32;;;;;;;;;;;;;;;12.65;100.00;99065.81;5057424;28;20009;-59
2021/12/01 06:04:58;;;;;;;;;;;;;;;12.58;100.00;99046.44;5072650;28;19917;-58
2021/12/01 06:07:23;;;;;;;;;;;;;;;12.89;100.00;99028.75;5057198;28;19924;-59
2021/12/01 06:09:48;;;;;;;;;;;;;;;12.84;100.00;99052.88;5056936;28;20333;-58
2021/12/01 06:12:14;;;;;;;;;;;;;;;12.83;100.00;99039.69;5089002;28;19917;-60
2021/12/01 06:14:43;;;;;;;;;;;;;;;12.89;100.00;99033.28;5056892;28;19986;-58
2021/12/01 06:17:10;;;;;;;;;;;;;;;12.77;100.00;99028.91;5072368;28;20019;-59
2021/12/01 06:19:36;;;;;;;;;;;;;;;12.79;100.00;99017.13;5055789;28;20403;-58
2021/12/01 06:22:01;;;;;;;;;;;;;;;12.88;100.00;99011.03;5057007;28;19921;-58
2021/12/01 06:24:27;;;;;;;;;;;;;;;12.77;100.00;99009.31;5055718;28;20326;-59
2021/12/01 06:26:52;;;;;;;;;;;;;;;12.93;100.00;99012.97;5056430;28;19927;-60
2021/12/01 06:29:18;;;;;;;;;;;;;;;12.69;100.00;99039.28;5056625;28;19923;-57
2021/12/01 06:31:43;;;;;;;;;;;;;;;13.23;100.00;99000.84;5089079;28;20355;-57
2021/12/01 06:34:09;;;;;;;;;;;;;;;12.98;100.00;98990.72;5054976;28;19961;-57
2021/12/01 06:36:34;;;;;;;;;;;;;;;13.41;100.00;99006.88;5056307;28;19917;-58
2021/12/01 06:39:00;;;;;;;;;;;;;;;13.03;100.00;98996.94;5089161;28;20337;-59
2021/12/01 06:41:25;;;;;;;;;;;;;;;12.95;100.00;98989.38;5055883;28;19921;-59
2021/12/01 06:43:50;;;;;;;;;;;;;;;13.15;100.00;98975.28;5056653;28;19912;-57
2021/12/01 06:46:16;;;;;;;;;;;;;;;13.29;100.00;98994.44;5056538;28;20376;-58
2021/12/01 06:48:41;;;;;;;;;;;;;;;13.30;100.00;98992.56;5056312;28;19921;-59
2021/12/01 06:51:07;;;;;;;;;;;;;;;13.11;100.00;99005.56;5088577;28;19920;-58
2021/12/01 06:53:32;;;;;;;;;;;;;;;13.05;100.00;98980.59;5089414;28;19927;-57
2021/12/01 06:55:58;;;;;;;;;;;;;;;13.07;100.00;98991.06;5057310;28;19921;-57
2021/12/01 06:58:23;;;;;;;;;;;;;;;13.32;100.00;98982.38;5056221;28;19921;-59
2021/12/01 07:00:48;;;;;;;;;;;;;;;13.15;100.00;98979.84;5089384;28;20344;-56
2021/12/01 07:03:14;;;;;;;;;;;;;;;13.33;100.00;98971.34;5057107;28;19920;-57
2021/12/01 07:05:39;;;;;;;;;;;;;;;13.36;100.00;98970.03;5055501;28;20010;-58
2021/12/01 07:08:05;;;;;;;;;;;;;;;13.59;100.00;98965.34;5056407;28;19939;-57
2021/12/01 07:10:30;;;;;;;;;;;;;;;13.20;100.00;98974.50;5056585;28;20062;-58
2021/12/01 07:12:56;;;;;;;;;;;;;;;13.61;100.00;98963.22;5055255;28;20362;-57
2021/12/01 07:15:21;;;;;;;;;;;;;;;13.43;100.00;98972.53;5056498;28;19924;-58
2021/12/01 07:17:47;;;;;;;;;;;;;;;13.22;100.00;98956.28;5055512;28;20373;-59
2021/12/01 07:20:13;;;;;;;;;;;;;;;13.22;100.00;98979.59;5055472;28;19916;-58
2021/12/01 07:22:38;;;;;;;;;;;;;;;13.42;100.00;98938.66;5055666;28;19942;-58
2021/12/01 07:25:04;;;;;;;;;;;;;;;13.50;100.00;98940.09;5054407;28;19924;-58
2021/12/01 07:27:29;;;;;;;;;;;;;;;13.33;100.00;98931.09;5054458;28;20008;-58
2021/12/01 07:29:55;;;;;;;;;;;;;;;13.42;100.00;98930.63;5055660;28;20011;-58
2021/12/01 07:32:20;;;;;;;;;;;;;;;13.73;100.00;98933.44;5054330;28;19943;-58
2021/12/01 07:34:46;;;;;;;;;;;;;;;13.53;100.00;98945.72;5055899;28;20319;-59
2021/12/01 07:37:12;;;;;;;;;;;;;;;13.61;100.00;98931.81;5054240;28;19916;-58
2021/12/01 07:39:38;;;;;;;;;;;;;;;13.61;100.00;98934.50;5055298;28;19962;-58
2021/12/01 07:42:04;;;;;;;;;;;;;;;13.45;100.00;98946.22;5054064;28;19929;-58
2021/12/01 07:44:30;;;;;;;;;;;;;;;13.12;100.00;98950.81;5055412;28;19928;-58
2021/12/01 07:46:55;;;;;;;;;;;;;;;13.58;100.00;98915.41;5055233;28;19916;-58
2021/12/01 07:49:20;;;;;;;;;;;;;;;13.73;100.00;98912.78;5054868;28;19920;-58
2021/12/01 07:51:46;;;;;;;;;;;;;;;13.26;100.00;98913.59;5053933;28;19920;-59
2021/12/01 07:54:11;;;;;;;;;;;;;;;13.74;100.00;98906.34;5055871;28;19917;-59
2021/12/01 07:56:36;;;;;;;;;;;;;;;13.64;100.00;98902.81;5086932;28;19921;-58
2021/12/01 07:59:02;;;;;;;;;;;;;;;13.97;100.00;98901.56;5055155;28;20277;-58
2021/12/01 08:01:28;;;;;;;;;;;;;;;13.62;100.00;98895.00;5053930;28;20369;-58
2021/12/01 08:03:53;;;;;;;;;;;;;;;13.88;100.00;98919.25;5053801;28;19931;-58
2021/12/01 08:06:19;;;;;;;;;;;;;;;13.81;100.00;98889.16;5054450;28;19982;-58
2021/12/01 08:08:44;;;;;;;;;;;;;;;13.74;100.00;98882.16;5087486;28;19921;-59
2021/12/01 08:11:09;;;;;;;;;;;;;;;13.56;100.00;98891.47;5054473;28;19916;-58
2021/12/01 08:13:35;;;;;;;;;;;;;;;13.71;100.00;98871.13;5055223;28;19920;-59
2021/12/01 08:16:00;;;;;;;;;;;;;;;13.59;100.00;98892.84;5054575;28;20015;-59
2021/12/01 08:18:26;;;;;;;;;;;;;;;14.12;100.00;98881.97;5087260;28;20007;-60
2021/12/01 08:20:51;;;;;;;;;;;;;;;13.70;100.00;98878.38;5054765;28;19923;-59
2021/12/01 08:23:16;;;;;;;;;;;;;;;13.69;100.00;98873.28;5054572;28;19920;-59
2021/12/01 08:25:42;;;;;;;;;;;;;;;14.05;100.00;98866.09;5053133;28;19916;-59
2021/12/01 08:28:07;;;;;;;;;;;;;;;14.07;100.00;98865.84;5086573;28;20445;-58
2021/12/01 08:30:33;;;;;;;;;;;;;;;13.71;100.00;98858.50;5054524;28;19924;-59
2021/12/01 08:32:59;;;;;;;;;;;;;;;13.85;100.00;98850.75;5054606;28;20365;-59
2021/12/01 08:35:24;;;;;;;;;;;;;;;13.83;100.00;98844.81;5053213;28;19996;-58
2021/12/01 08:37:50;;;;;;;;;;;;;;;13.83;100.00;98855.56;5054255;28;19928;-58
2021/12/01 08:40:16;;;;;;;;;;;;;;;13.71;100.00;98849.63;5053574;28;20419;-58
2021/12/01 08:42:41;;;;;;;;;;;;;;;14.05;100.00;98867.97;5054821;28;19939;-59
2021/12/01 08:45:07;;;;;;;;;;;;;;;13.47;100.00;98871.59;5055078;28;20377;-58
2021/12/01 08:47:33;;;;;;;;;;;;;;;13.55;100.00;98902.50;5054253;28;19966;-58
2021/12/01 08:49:58;;;;;;;;;;;;;;;13.36;100.00;98907.47;5053792;28;19931;-57
2021/12/01 08:52:24;;;;;;;;;;;;;;;13.83;100.00;98916.56;5053846;28;20404;-58
2021/12/01 08:54:49;;;;;;;;;;;;;;;13.96;100.00;98899.13;5053759;28;19966;-59
2021/12/01 08:57:15;;;;;;;;;;;;;;;13.61;100.00;98891.53;5070431;28;20383;-59
2021/12/01 08:59:40;;;;;;;;;;;;;;;13.58;100.00;98902.75;5053138;28;20003;-60
2021/12/01 09:02:06;;;;;;;;;;;;;;;13.77;100.00;98902.31;5087378;28;19916;-58
2021/12/01 09:04:31;;;;;;;;;;;;;;;13.92;100.00;98898.84;5056740;28;20376;-59
2021/12/01 09:06:57;;;;;;;;;;;;;;;14.15;100.00;98902.94;5071287;28;19988;-58
2021/12/01 09:09:22;;;;;;;;;;;;;;;14.22;100.00;98924.19;5072280;28;19916;-60
2021/12/01 09:11:49;;;;;;;;;;;;;;;14.23;100.00;98928.47;5071778;28;19937;-58
2021/12/01 09:14:14;;;;;;;;;;;;;;;13.80;100.00;98928.63;5100198;28;20273;-59
2021/12/01 09:16:40;;;;;;;;;;;;;;;13.86;100.00;98922.22;5054244;28;19972;-59
2021/12/01 09:19:06;;;;;;;;;;;;;;;13.50;100.00;98927.44;5056334;28;19964;-58
2021/12/01 09:21:31;;;;;;;;;;;;;;;14.27;100.00;98929.56;5054550;28;19921;-59
2021/12/01 09:23:57;;;;;;;;;;;;;;;14.05;100.00;98921.72;5064551;28;19920;-58
2021/12/01 09:26:22;;;;;;;;;;;;;;;13.59;100.00;98968.03;5073303;28;19983;-60
2021/12/01 09:28:47;;;;;;;;;;;;;;;14.00;100.00;98952.09;5073808;28;19939;-59
2021/12/01 09:31:13;;;;;;;;;;;;;;;13.94;100.00;98922.78;5099597;28;19925;-60
2021/12/01 09:33:38;;;;;;;;;;;;;;;14.14;100.00;98920.13;5070132;28;19970;-59
2021/12/01 09:36:04;;;;;;;;;;;;;;;14.03;100.00;98905.88;5053558;28;19925;-60
2021/12/01 09:38:30;;;;;;;;;;;;;;;14.07;100.00;98922.28;5064458;28;19917;-59
2021/12/01 09:40:57;;;;;;;;;;;;;;;14.44;100.00;98923.94;5053798;28;19999;-59
2021/12/01 09:43:25;;;;;;;;;;;;;;;14.24;100.00;98934.66;5053669;28;19974;-59
2021/12/01 09:45:51;;;;;;;;;;;;;;;14.43;100.00;98934.97;5069171;28;19917;-58
2021/12/01 09:48:17;;;;;;;;;;;;;;;14.48;100.00;98938.44;5069750;28;19967;-58
2021/12/01 09:50:42;;;;;;;;;;;;;;;14.71;100.00;98943.59;5086021;28;19967;-59
2021/12/01 09:53:08;;;;;;;;;;;;;;;14.65;100.00;98937.38;5086258;28;19968;-60
2021/12/01 09:55:33;;;;;;;;;;;;;;;15.09;100.00;98933.31;5085573;28;19969;-59
2021/12/01 09:58:04;;;;;;;;;;;;;;;15.75;100.00;98933.41;5052536;28;20280;-59
2021/12/01 10:00:30;;;;;;;;;;;;;;;15.22;100.00;98942.72;5052100;28;20281;-59
2021/12/01 10:02:56;;;;;;;;;;;;;;;15.14;100.00;98937.91;5053333;28;19924;-59
2021/12/01 10:05:41;;;;;;;;;;;;;;;14.55;100.00;98937.41;5053129;28;19960;-57
2021/12/01 10:08:09;;;;;;;;;;;;;;;14.05;100.00;98941.34;5053145;28;19917;-60
2021/12/01 10:10:37;;;;;;;;;;;;;;;13.97;100.00;98939.19;5053226;28;19925;-59
2021/12/01 10:13:02;;;;;;;;;;;;;;;13.67;100.00;98943.34;5053670;28;19963;-59
2021/12/01 10:15:32;;;;;;;;;;;;;;;14.45;100.00;98928.22;5053576;28;19924;-58
2021/12/01 10:18:26;;;;;;;;;;;;;;;14.61;100.00;98942.47;5086363;28;19920;-58
2021/12/01 10:21:02;;;;;;;;;;;;;;;14.33;100.00;98943.81;5048190;28;19917;-58
2021/12/01 10:23:28;;;;;;;;;;;;;;;13.99;100.00;98958.53;5053346;28;20296;-58
2021/12/01 10:25:54;;;;;;;;;;;;;;;13.84;100.00;98953.09;5056277;28;19928;-58
2021/12/01 10:28:33;;;;;;;;;;;;;;;13.84;100.00;98940.50;5056613;28;19920;-58
2021/12/01 10:30:58;;;;;;;;;;;;;;;14.29;100.00;98956.16;5056639;28;19916;-59
2021/12/01 10:33:24;;;;;;;;;;;;;;;14.45;100.00;98955.13;5072743;28;19947;-59
2021/12/01 10:35:49;;;;;;;;;;;;;;;13.81;100.00;98956.31;5089095;28;20307;-59
2021/12/01 10:38:24;;;;;;;;;;;;;;;13.60;100.00;98951.66;5055143;28;19924;-58
2021/12/01 10:40:59;;;;;;;;;;;;;;;14.19;100.00;98938.16;5056788;28;20378;-59
2021/12/01 10:43:33;;;;;;;;;;;;;;;14.13;100.00;98937.34;5057070;28;19973;-57
2021/12/01 10:46:05;;;;;;;;;;;;;;;14.78;100.00;98938.75;5057002;28;19916;-59
2021/12/01 10:48:30;;;;;;;;;;;;;;;14.58;100.00;98936.84;5057052;28;20376;-59
2021/12/01 10:50:55;;;;;;;;;;;;;;;14.61;100.00;98936.31;5056326;28;19913;-59
2021/12/01 10:53:23;;;;;;;;;;;;;;;14.65;100.00;98932.00;5055882;28;20399;-58
2021/12/01 10:55:50;;;;;;;;;;;;;;;14.46;100.00;98940.59;5056660;28;19943;-59
2021/12/01 10:58:16;;;;;;;;;;;;;;;14.41;100.00;98934.41;5055931;28;19925;-59
2021/12/01 11:00:46;;;;;;;;;;;;;;;14.43;100.00;98932.28;5056233;28;19921;-58
2021/12/01 11:03:12;;;;;;;;;;;;;;;14.37;100.00;98931.47;5058673;28;19917;-59
2021/12/01 11:05:39;;;;;;;;;;;;;;;14.35;100.00;98925.53;5058034;28;19920;-59
2021/12/01 11:08:21;;;;;;;;;;;;;;;14.12;100.00;98929.53;5081627;28;20280;-60
2021/12/01 11:10:50;;;;;;;;;;;;;;;14.22;100.00;98915.28;5060456;28;19917;-58
2021/12/01 11:13:17;;;;;;;;;;;;;;;14.71;100.00;98946.31;5057940;28;19921;-59
2021/12/01 11:15:43;;;;;;;;;;;;;;;14.58;100.00;98931.47;5060074;28;19917;-59
2021/12/01 11:18:20;;;;;;;;;;;;;;;14.09;100.00;98933.56;5058059;28;20078;-60
2021/12/01 11:20:45;;;;;;;;;;;;;;;14.77;100.00;98924.50;5056078;28;19924;-59
2021/12/01 11:23:16;;;;;;;;;;;;;;;14.62;100.00;98925.25;5055658;28;20284;-58
2021/12/01 11:25:42;;;;;;;;;;;;;;;14.08;100.00;98928.44;5055615;28;19917;-59
2021/12/01 11:28:09;;;;;;;;;;;;;;;14.52;100.00;98924.47;5055506;28;19924;-60
2021/12/01 11:30:35;;;;;;;;;;;;;;;14.36;100.00;98929.03;5056062;28;20288;-60
2021/12/01 11:33:01;;;;;;;;;;;;;;;14.20;100.00;98931.72;5055717;28;19991;-59
2021/12/01 11:35:27;;;;;;;;;;;;;;;14.60;100.00;98923.94;5055335;28;19920;-59
2021/12/01 11:37:55;;;;;;;;;;;;;;;13.95;100.00;98925.19;5053471;28;19924;-60
2021/12/01 11:40:28;;;;;;;;;;;;;;;14.47;100.00;98920.69;5055223;28;19923;-59
2021/12/01 11:42:54;;;;;;;;;;;;;;;14.62;100.00;98921.78;5055452;28;19916;-60
2021/12/01 11:45:19;;;;;;;;;;;;;;;14.43;100.00;98913.44;5054917;28;19959;-60
2021/12/01 11:47:47;;;;;;;;;;;;;;;14.59;100.00;98922.31;5055512;28;19963;-59
2021/12/01 11:50:18;;;;;;;;;;;;;;;15.39;100.00;98920.06;5056259;28;19920;-59
2021/12/01 11:52:52;;;;;;;;;;;;;;;15.09;100.00;98911.78;5055597;28;19931;-60
2021/12/01 11:55:37;;;;;;;;;;;;;;;14.91;100.00;98907.78;5055002;28;19916;-59
2021/12/01 11:58:04;;;;;;;;;;;;;;;14.96;100.00;98912.38;5055250;28;19920;-60
2021/12/01 12:00:45;;;;;;;;;;;;;;;15.29;100.00;98924.41;5055207;28;19927;-60
2021/12/01 12:03:24;;;;;;;;;;;;;;;14.66;100.00;98908.63;5088178;28;19987;-59
2021/12/01 12:06:08;;;;;;;;;;;;;;;14.71;100.00;98914.81;5055067;28;19924;-60
2021/12/01 12:08:51;;;;;;;;;;;;;;;14.83;100.00;98911.03;5054609;28;19942;-60
2021/12/01 12:11:36;;;;;;;;;;;;;;;15.03;100.00;98923.66;5054644;28;19921;-64
2021/12/01 12:14:11;;;;;;;;;;;;;;;15.62;100.00;98927.50;5087196;28;19944;-56
2021/12/01 12:16:37;;;;;;;;;;;;;;;14.67;100.00;98913.72;5054581;28;20003;-59
2021/12/01 12:19:03;;;;;;;;;;;;;;;14.63;100.00;98908.03;5054601;28;20024;-58
2021/12/01 12:21:52;;;;;;;;;;;;;;;14.46;100.00;98918.28;5054839;28;20007;-61
2021/12/01 12:24:20;;;;;;;;;;;;;;;14.65;100.00;98907.78;5054767;28;19921;-60
2021/12/01 12:26:48;;;;;;;;;;;;;;;14.81;100.00;98916.69;5087333;28;19975;-60
2021/12/01 12:29:15;;;;;;;;;;;;;;;14.47;100.00;98904.56;5055385;28;19920;-60
2021/12/01 12:31:42;;;;;;;;;;;;;;;14.97;100.00;98901.31;5054347;28;19916;-61
2021/12/01 12:34:13;;;;;;;;;;;;;;;15.15;100.00;98918.78;5086685;28;19955;-60
2021/12/01 12:36:43;;;;;;;;;;;;;;;15.06;100.00;98904.25;5069536;28;20011;-60
2021/12/01 12:39:16;;;;;;;;;;;;;;;15.25;100.00;98896.44;5053187;28;19967;-59
2021/12/01 12:42:06;;;;;;;;;;;;;;;15.14;100.00;98909.09;5054100;28;20361;-62